sensor_id;sensor_type;location;lat;lon;timestamp;temperature;humidity
64961;SHT31;51487;52.266;10.542;2022-08-19T00:00:34;21.08;85.02
64961;SHT31;51487;52.266;10.542;2022-08-19T00:03:00;21.04;85.10
64961;SHT31;51487;52.266;10.542;2022-08-19T00:05:25;20.95;85.22
64961;SHT31;51487;52.266;10.542;2022-08-19T00:07:51;21.08;84.99
64961;SHT31;51487;52.266;10.542;2022-08-19T00:10:18;20.91;85.38
64961;SHT31;51487;52.266;10.542;2022-08-19T00:12:44;20.92;85.47
64961;SHT31;51487;52.266;10.542;2022-08-19T00:15:15;20.97;85.26
64961;SHT31;51487;52.266;10.542;2022-08-19T00:17:43;20.91;85.41
64961;SHT31;51487;52.266;10.542;2022-08-19T00:20:14;20.84;85.62
64961;SHT31;51487;52.266;10.542;2022-08-19T00:22:43;20.83;85.57
64961;SHT31;51487;52.266;10.542;2022-08-19T00:25:09;20.87;85.32
64961;SHT31;51487;52.266;10.542;2022-08-19T00:27:35;20.77;85.78
64961;SHT31;51487;52.266;10.542;2022-08-19T00:30:02;20.76;85.84
64961;SHT31;51487;52.266;10.542;2022-08-19T00:32:30;20.73;86.09
64961;SHT31;51487;52.266;10.542;2022-08-19T00:34:55;20.60;86.36
64961;SHT31;51487;52.266;10.542;2022-08-19T00:37:23;20.63;86.25
64961;SHT31;51487;52.266;10.542;2022-08-19T00:39:51;20.66;86.04
64961;SHT31;51487;52.266;10.542;2022-08-19T00:42:19;20.57;85.81
64961;SHT31;51487;52.266;10.542;2022-08-19T00:44:45;20.47;86.09
64961;SHT31;51487;52.266;10.542;2022-08-19T00:47:11;20.60;85.72
64961;SHT31;51487;52.266;10.542;2022-08-19T00:49:56;20.66;85.26
64961;SHT31;51487;52.266;10.542;2022-08-19T00:52:50;20.57;85.87
64961;SHT31;51487;52.266;10.542;2022-08-19T00:55:22;20.77;85.11
64961;SHT31;51487;52.266;10.542;2022-08-19T00:57:55;20.70;84.89
64961;SHT31;51487;52.266;10.542;2022-08-19T01:00:24;20.64;85.04
64961;SHT31;51487;52.266;10.542;2022-08-19T01:02:52;20.56;85.27
64961;SHT31;51487;52.266;10.542;2022-08-19T01:05:25;20.39;85.76
64961;SHT31;51487;52.266;10.542;2022-08-19T01:07:54;20.29;86.18
64961;SHT31;51487;52.266;10.542;2022-08-19T01:10:26;20.34;85.99
64961;SHT31;51487;52.266;10.542;2022-08-19T01:12:52;20.36;85.69
64961;SHT31;51487;52.266;10.542;2022-08-19T01:15:29;20.40;85.44
64961;SHT31;51487;52.266;10.542;2022-08-19T01:17:57;20.43;85.37
64961;SHT31;51487;52.266;10.542;2022-08-19T01:20:24;20.33;85.48
64961;SHT31;51487;52.266;10.542;2022-08-19T01:22:57;20.19;85.90
64961;SHT31;51487;52.266;10.542;2022-08-19T01:25:36;20.26;85.78
64961;SHT31;51487;52.266;10.542;2022-08-19T01:28:04;20.32;85.51
64961;SHT31;51487;52.266;10.542;2022-08-19T01:30:34;20.18;85.62
64961;SHT31;51487;52.266;10.542;2022-08-19T01:33:01;20.15;85.96
64961;SHT31;51487;52.266;10.542;2022-08-19T01:35:30;20.06;86.27
64961;SHT31;51487;52.266;10.542;2022-08-19T01:38:01;20.02;86.25
64961;SHT31;51487;52.266;10.542;2022-08-19T01:40:34;20.05;86.40
64961;SHT31;51487;52.266;10.542;2022-08-19T01:43:02;20.04;86.21
64961;SHT31;51487;52.266;10.542;2022-08-19T01:45:32;19.94;86.60
64961;SHT31;51487;52.266;10.542;2022-08-19T01:47:59;19.88;86.54
64961;SHT31;51487;52.266;10.542;2022-08-19T01:50:25;19.78;86.78
64961;SHT31;51487;52.266;10.542;2022-08-19T01:52:51;19.78;86.65
64961;SHT31;51487;52.266;10.542;2022-08-19T01:55:20;19.82;86.45
64961;SHT31;51487;52.266;10.542;2022-08-19T01:57:54;19.82;86.33
64961;SHT31;51487;52.266;10.542;2022-08-19T02:00:24;19.86;86.23
64961;SHT31;51487;52.266;10.542;2022-08-19T02:02:50;19.95;85.92
64961;SHT31;51487;52.266;10.542;2022-08-19T02:05:16;19.75;86.52
64961;SHT31;51487;52.266;10.542;2022-08-19T02:07:44;19.79;86.15
64961;SHT31;51487;52.266;10.542;2022-08-19T02:10:16;19.78;86.36
64961;SHT31;51487;52.266;10.542;2022-08-19T02:12:42;19.84;86.33
64961;SHT31;51487;52.266;10.542;2022-08-19T02:15:08;19.91;86.17
64961;SHT31;51487;52.266;10.542;2022-08-19T02:17:34;19.98;85.85
64961;SHT31;51487;52.266;10.542;2022-08-19T02:20:00;19.84;86.08
64961;SHT31;51487;52.266;10.542;2022-08-19T02:22:26;19.88;85.59
64961;SHT31;51487;52.266;10.542;2022-08-19T02:24:54;19.73;86.17
64961;SHT31;51487;52.266;10.542;2022-08-19T02:27:21;19.81;85.72
64961;SHT31;51487;52.266;10.542;2022-08-19T02:29:49;19.78;85.90
64961;SHT31;51487;52.266;10.542;2022-08-19T02:32:15;19.91;85.64
64961;SHT31;51487;52.266;10.542;2022-08-19T02:34:42;19.79;85.90
64961;SHT31;51487;52.266;10.542;2022-08-19T02:37:08;19.74;86.20
64961;SHT31;51487;52.266;10.542;2022-08-19T02:39:53;19.54;86.93
64961;SHT31;51487;52.266;10.542;2022-08-19T02:42:19;19.50;87.24
64961;SHT31;51487;52.266;10.542;2022-08-19T02:44:47;19.40;87.42
64961;SHT31;51487;52.266;10.542;2022-08-19T02:47:13;19.38;87.50
64961;SHT31;51487;52.266;10.542;2022-08-19T02:49:40;19.33;87.58
64961;SHT31;51487;52.266;10.542;2022-08-19T02:52:06;19.31;87.67
64961;SHT31;51487;52.266;10.542;2022-08-19T02:54:32;19.26;87.75
64961;SHT31;51487;52.266;10.542;2022-08-19T02:56:57;19.23;87.79
64961;SHT31;51487;52.266;10.542;2022-08-19T02:59:24;19.33;87.32
64961;SHT31;51487;52.266;10.542;2022-08-19T03:01:52;19.40;87.19
64961;SHT31;51487;52.266;10.542;2022-08-19T03:04:17;19.41;87.15
64961;SHT31;51487;52.266;10.542;2022-08-19T03:06:46;19.44;87.11
64961;SHT31;51487;52.266;10.542;2022-08-19T03:09:13;19.30;87.69
64961;SHT31;51487;52.266;10.542;2022-08-19T03:11:39;19.30;87.64
64961;SHT31;51487;52.266;10.542;2022-08-19T03:14:08;19.23;87.92
64961;SHT31;51487;52.266;10.542;2022-08-19T03:16:43;19.31;87.55
64961;SHT31;51487;52.266;10.542;2022-08-19T03:19:09;19.22;87.98
64961;SHT31;51487;52.266;10.542;2022-08-19T03:21:34;19.17;88.09
64961;SHT31;51487;52.266;10.542;2022-08-19T03:24:05;19.16;87.99
64961;SHT31;51487;52.266;10.542;2022-08-19T03:26:31;19.07;88.06
64961;SHT31;51487;52.266;10.542;2022-08-19T03:28:57;19.03;88.53
64961;SHT31;51487;52.266;10.542;2022-08-19T03:31:26;19.05;88.40
64961;SHT31;51487;52.266;10.542;2022-08-19T03:33:52;19.09;88.24
64961;SHT31;51487;52.266;10.542;2022-08-19T03:36:24;19.09;87.81
64961;SHT31;51487;52.266;10.542;2022-08-19T03:38:55;19.05;88.07
64961;SHT31;51487;52.266;10.542;2022-08-19T03:41:29;19.06;88.17
64961;SHT31;51487;52.266;10.542;2022-08-19T03:43:56;19.13;87.81
64961;SHT31;51487;52.266;10.542;2022-08-19T03:46:28;19.12;87.74
64961;SHT31;51487;52.266;10.542;2022-08-19T03:48:56;18.94;88.30
64961;SHT31;51487;52.266;10.542;2022-08-19T03:51:27;18.99;87.93
64961;SHT31;51487;52.266;10.542;2022-08-19T03:53:55;18.94;88.19
64961;SHT31;51487;52.266;10.542;2022-08-19T03:56:22;18.89;88.30
64961;SHT31;51487;52.266;10.542;2022-08-19T03:58:48;18.89;88.35
64961;SHT31;51487;52.266;10.542;2022-08-19T04:01:17;18.86;88.45
64961;SHT31;51487;52.266;10.542;2022-08-19T04:03:44;18.78;88.72
64961;SHT31;51487;52.266;10.542;2022-08-19T04:06:23;18.65;89.24
64961;SHT31;51487;52.266;10.542;2022-08-19T04:08:52;18.66;89.19
64961;SHT31;51487;52.266;10.542;2022-08-19T04:11:25;18.78;88.81
64961;SHT31;51487;52.266;10.542;2022-08-19T04:13:53;18.61;89.28
64961;SHT31;51487;52.266;10.542;2022-08-19T04:16:21;18.59;89.27
64961;SHT31;51487;52.266;10.542;2022-08-19T04:18:48;18.55;89.47
64961;SHT31;51487;52.266;10.542;2022-08-19T04:21:21;18.45;89.97
64961;SHT31;51487;52.266;10.542;2022-08-19T04:23:48;18.54;89.73
64961;SHT31;51487;52.266;10.542;2022-08-19T04:26:24;18.64;89.29
64961;SHT31;51487;52.266;10.542;2022-08-19T04:28:51;18.57;89.60
64961;SHT31;51487;52.266;10.542;2022-08-19T04:31:29;18.58;89.35
64961;SHT31;51487;52.266;10.542;2022-08-19T04:34:00;18.71;88.89
64961;SHT31;51487;52.266;10.542;2022-08-19T04:36:30;18.72;88.55
64961;SHT31;51487;52.266;10.542;2022-08-19T04:39:02;18.64;88.54
64961;SHT31;51487;52.266;10.542;2022-08-19T04:41:28;18.57;89.07
64961;SHT31;51487;52.266;10.542;2022-08-19T04:44:13;18.54;88.91
64961;SHT31;51487;52.266;10.542;2022-08-19T04:46:39;18.57;89.11
64961;SHT31;51487;52.266;10.542;2022-08-19T04:49:07;18.69;88.52
64961;SHT31;51487;52.266;10.542;2022-08-19T04:51:34;18.79;88.03
64961;SHT31;51487;52.266;10.542;2022-08-19T04:54:02;18.75;87.84
64961;SHT31;51487;52.266;10.542;2022-08-19T04:56:28;18.69;87.88
64961;SHT31;51487;52.266;10.542;2022-08-19T04:58:56;18.54;88.31
64961;SHT31;51487;52.266;10.542;2022-08-19T05:01:26;18.57;88.25
64961;SHT31;51487;52.266;10.542;2022-08-19T05:03:54;18.47;88.53
64961;SHT31;51487;52.266;10.542;2022-08-19T05:06:22;18.34;89.17
64961;SHT31;51487;52.266;10.542;2022-08-19T05:08:49;18.38;88.98
64961;SHT31;51487;52.266;10.542;2022-08-19T05:11:23;18.37;88.93
64961;SHT31;51487;52.266;10.542;2022-08-19T05:13:49;18.20;89.77
64961;SHT31;51487;52.266;10.542;2022-08-19T05:16:18;18.20;89.86
64961;SHT31;51487;52.266;10.542;2022-08-19T05:18:45;18.27;89.52
64961;SHT31;51487;52.266;10.542;2022-08-19T05:21:31;18.37;89.11
64961;SHT31;51487;52.266;10.542;2022-08-19T05:24:16;18.33;89.42
64961;SHT31;51487;52.266;10.542;2022-08-19T05:26:47;18.20;90.10
64961;SHT31;51487;52.266;10.542;2022-08-19T05:29:16;18.28;89.69
64961;SHT31;51487;52.266;10.542;2022-08-19T05:31:43;18.24;89.92
64961;SHT31;51487;52.266;10.542;2022-08-19T05:34:10;18.37;89.41
64961;SHT31;51487;52.266;10.542;2022-08-19T05:36:41;18.48;88.96
64961;SHT31;51487;52.266;10.542;2022-08-19T05:39:10;18.49;88.87
64961;SHT31;51487;52.266;10.542;2022-08-19T05:41:35;18.62;88.39
64961;SHT31;51487;52.266;10.542;2022-08-19T05:44:04;18.51;88.46
64961;SHT31;51487;52.266;10.542;2022-08-19T05:46:37;18.24;89.46
64961;SHT31;51487;52.266;10.542;2022-08-19T05:49:07;18.41;88.73
64961;SHT31;51487;52.266;10.542;2022-08-19T05:51:36;18.34;89.01
64961;SHT31;51487;52.266;10.542;2022-08-19T05:54:04;18.36;89.00
64961;SHT31;51487;52.266;10.542;2022-08-19T05:56:31;18.44;88.60
64961;SHT31;51487;52.266;10.542;2022-08-19T05:58:58;18.40;88.74
64961;SHT31;51487;52.266;10.542;2022-08-19T06:01:25;18.47;88.57
64961;SHT31;51487;52.266;10.542;2022-08-19T06:03:51;18.55;88.24
64961;SHT31;51487;52.266;10.542;2022-08-19T06:06:17;18.55;87.98
64961;SHT31;51487;52.266;10.542;2022-08-19T06:08:43;18.49;88.39
64961;SHT31;51487;52.266;10.542;2022-08-19T06:11:20;18.54;87.95
64961;SHT31;51487;52.266;10.542;2022-08-19T06:13:49;18.57;87.75
64961;SHT31;51487;52.266;10.542;2022-08-19T06:16:19;18.54;87.72
64961;SHT31;51487;52.266;10.542;2022-08-19T06:18:53;18.58;87.66
64961;SHT31;51487;52.266;10.542;2022-08-19T06:21:25;18.57;87.77
64961;SHT31;51487;52.266;10.542;2022-08-19T06:23:52;18.62;87.47
64961;SHT31;51487;52.266;10.542;2022-08-19T06:26:19;18.61;87.43
64961;SHT31;51487;52.266;10.542;2022-08-19T06:28:47;18.59;87.18
64961;SHT31;51487;52.266;10.542;2022-08-19T06:31:23;18.41;87.84
64961;SHT31;51487;52.266;10.542;2022-08-19T06:33:49;18.36;88.17
64961;SHT31;51487;52.266;10.542;2022-08-19T06:36:29;18.44;87.89
64961;SHT31;51487;52.266;10.542;2022-08-19T06:39:05;18.38;88.04
64961;SHT31;51487;52.266;10.542;2022-08-19T06:41:36;18.31;88.14
64961;SHT31;51487;52.266;10.542;2022-08-19T06:44:02;18.48;87.59
64961;SHT31;51487;52.266;10.542;2022-08-19T06:46:28;18.47;87.41
64961;SHT31;51487;52.266;10.542;2022-08-19T06:48:54;18.54;87.02
64961;SHT31;51487;52.266;10.542;2022-08-19T06:51:22;18.51;86.65
64961;SHT31;51487;52.266;10.542;2022-08-19T06:53:51;18.61;86.37
64961;SHT31;51487;52.266;10.542;2022-08-19T06:56:21;18.68;85.93
64961;SHT31;51487;52.266;10.542;2022-08-19T06:58:48;18.75;85.80
64961;SHT31;51487;52.266;10.542;2022-08-19T07:01:17;18.72;85.47
64961;SHT31;51487;52.266;10.542;2022-08-19T07:03:42;18.73;85.66
64961;SHT31;51487;52.266;10.542;2022-08-19T07:06:14;18.61;85.85
64961;SHT31;51487;52.266;10.542;2022-08-19T07:08:44;18.62;85.76
64961;SHT31;51487;52.266;10.542;2022-08-19T07:11:14;18.62;85.40
64961;SHT31;51487;52.266;10.542;2022-08-19T07:13:40;18.75;85.30
64961;SHT31;51487;52.266;10.542;2022-08-19T07:16:13;18.82;84.93
64961;SHT31;51487;52.266;10.542;2022-08-19T07:18:40;18.71;85.10
64961;SHT31;51487;52.266;10.542;2022-08-19T07:21:20;18.79;85.12
64961;SHT31;51487;52.266;10.542;2022-08-19T07:23:48;18.85;84.83
64961;SHT31;51487;52.266;10.542;2022-08-19T07:26:26;18.64;85.06
64961;SHT31;51487;52.266;10.542;2022-08-19T07:28:53;18.58;85.53
64961;SHT31;51487;52.266;10.542;2022-08-19T07:31:22;18.62;85.21
64961;SHT31;51487;52.266;10.542;2022-08-19T07:33:51;18.61;85.40
64961;SHT31;51487;52.266;10.542;2022-08-19T07:36:25;18.68;85.19
64961;SHT31;51487;52.266;10.542;2022-08-19T07:38:53;18.71;84.91
64961;SHT31;51487;52.266;10.542;2022-08-19T07:41:24;18.73;84.81
64961;SHT31;51487;52.266;10.542;2022-08-19T07:43:50;18.76;84.88
64961;SHT31;51487;52.266;10.542;2022-08-19T07:46:17;18.64;85.23
64961;SHT31;51487;52.266;10.542;2022-08-19T07:48:47;18.71;85.14
64961;SHT31;51487;52.266;10.542;2022-08-19T07:51:18;18.75;84.89
64961;SHT31;51487;52.266;10.542;2022-08-19T07:53:44;18.78;84.76
64961;SHT31;51487;52.266;10.542;2022-08-19T07:56:13;18.91;84.34
64961;SHT31;51487;52.266;10.542;2022-08-19T07:58:44;18.96;84.03
64961;SHT31;51487;52.266;10.542;2022-08-19T08:01:19;19.07;83.67
64961;SHT31;51487;52.266;10.542;2022-08-19T08:03:46;19.09;83.67
64961;SHT31;51487;52.266;10.542;2022-08-19T08:06:30;19.02;83.54
64961;SHT31;51487;52.266;10.542;2022-08-19T08:09:40;18.94;83.99
64961;SHT31;51487;52.266;10.542;2022-08-19T08:12:16;19.09;83.62
64961;SHT31;51487;52.266;10.542;2022-08-19T08:14:51;19.16;83.60
64961;SHT31;51487;52.266;10.542;2022-08-19T08:17:21;19.02;83.88
64961;SHT31;51487;52.266;10.542;2022-08-19T08:19:47;19.10;83.81
64961;SHT31;51487;52.266;10.542;2022-08-19T08:22:17;19.10;83.45
64961;SHT31;51487;52.266;10.542;2022-08-19T08:25:09;19.23;83.19
64961;SHT31;51487;52.266;10.542;2022-08-19T08:27:37;19.27;83.10
64961;SHT31;51487;52.266;10.542;2022-08-19T08:30:11;19.13;83.11
64961;SHT31;51487;52.266;10.542;2022-08-19T08:32:39;19.07;83.80
64961;SHT31;51487;52.266;10.542;2022-08-19T08:35:09;19.05;83.64
64961;SHT31;51487;52.266;10.542;2022-08-19T08:37:35;19.10;83.36
64961;SHT31;51487;52.266;10.542;2022-08-19T08:40:50;19.49;81.68
64961;SHT31;51487;52.266;10.542;2022-08-19T08:46:19;19.49;81.57
64961;SHT31;51487;52.266;10.542;2022-08-19T08:49:01;19.36;81.98
64961;SHT31;51487;52.266;10.542;2022-08-19T08:51:45;19.55;81.28
64961;SHT31;51487;52.266;10.542;2022-08-19T08:54:18;19.54;81.34
64961;SHT31;51487;52.266;10.542;2022-08-19T08:56:47;19.43;81.67
64961;SHT31;51487;52.266;10.542;2022-08-19T08:59:26;19.77;80.32
64961;SHT31;51487;52.266;10.542;2022-08-19T09:01:53;19.68;80.33
64961;SHT31;51487;52.266;10.542;2022-08-19T09:04:19;19.71;80.14
64961;SHT31;51487;52.266;10.542;2022-08-19T09:07:22;19.79;79.65
64961;SHT31;51487;52.266;10.542;2022-08-19T09:10:02;20.15;79.11
64961;SHT31;51487;52.266;10.542;2022-08-19T09:12:47;20.33;78.26
64961;SHT31;51487;52.266;10.542;2022-08-19T09:15:28;20.50;77.43
64961;SHT31;51487;52.266;10.542;2022-08-19T09:17:54;20.64;76.88
64961;SHT31;51487;52.266;10.542;2022-08-19T09:20:22;20.42;77.51
64961;SHT31;51487;52.266;10.542;2022-08-19T09:22:48;20.62;77.04
64961;SHT31;51487;52.266;10.542;2022-08-19T09:25:21;20.90;76.38
64961;SHT31;51487;52.266;10.542;2022-08-19T09:27:52;20.77;75.68
64961;SHT31;51487;52.266;10.542;2022-08-19T09:30:27;20.90;75.68
64961;SHT31;51487;52.266;10.542;2022-08-19T09:32:54;20.69;76.16
64961;SHT31;51487;52.266;10.542;2022-08-19T09:35:23;20.81;76.14
64961;SHT31;51487;52.266;10.542;2022-08-19T09:37:51;20.81;76.21
64961;SHT31;51487;52.266;10.542;2022-08-19T09:40:17;20.62;76.63
64961;SHT31;51487;52.266;10.542;2022-08-19T09:42:44;20.56;76.59
64961;SHT31;51487;52.266;10.542;2022-08-19T09:45:13;20.64;76.66
64961;SHT31;51487;52.266;10.542;2022-08-19T09:47:39;20.56;76.80
64961;SHT31;51487;52.266;10.542;2022-08-19T09:50:08;20.81;76.32
64961;SHT31;51487;52.266;10.542;2022-08-19T09:52:34;20.77;76.15
64961;SHT31;51487;52.266;10.542;2022-08-19T09:55:06;20.84;76.48
64961;SHT31;51487;52.266;10.542;2022-08-19T09:57:33;20.97;75.45
64961;SHT31;51487;52.266;10.542;2022-08-19T09:59:59;21.07;75.44
64961;SHT31;51487;52.266;10.542;2022-08-19T10:02:25;21.20;74.38
64961;SHT31;51487;52.266;10.542;2022-08-19T10:04:51;21.07;74.61
64961;SHT31;51487;52.266;10.542;2022-08-19T10:07:37;20.54;75.94
64961;SHT31;51487;52.266;10.542;2022-08-19T10:10:05;20.44;76.36
64961;SHT31;51487;52.266;10.542;2022-08-19T10:12:33;20.64;75.90
64961;SHT31;51487;52.266;10.542;2022-08-19T10:14:59;20.63;76.16
64961;SHT31;51487;52.266;10.542;2022-08-19T10:17:25;20.49;76.55
64961;SHT31;51487;52.266;10.542;2022-08-19T10:19:52;20.54;76.93
64961;SHT31;51487;52.266;10.542;2022-08-19T10:22:18;20.42;77.06
64961;SHT31;51487;52.266;10.542;2022-08-19T10:24:47;20.43;76.77
64961;SHT31;51487;52.266;10.542;2022-08-19T10:27:12;20.66;76.61
64961;SHT31;51487;52.266;10.542;2022-08-19T10:29:39;21.07;75.49
64961;SHT31;51487;52.266;10.542;2022-08-19T10:32:08;20.84;75.76
64961;SHT31;51487;52.266;10.542;2022-08-19T10:34:36;20.76;75.84
64961;SHT31;51487;52.266;10.542;2022-08-19T10:37:04;20.47;76.80
64961;SHT31;51487;52.266;10.542;2022-08-19T10:39:35;20.74;76.24
64961;SHT31;51487;52.266;10.542;2022-08-19T10:42:06;20.76;76.07
64961;SHT31;51487;52.266;10.542;2022-08-19T10:44:33;21.17;75.43
64961;SHT31;51487;52.266;10.542;2022-08-19T10:47:03;20.70;75.66
64961;SHT31;51487;52.266;10.542;2022-08-19T10:49:28;20.98;75.11
64961;SHT31;51487;52.266;10.542;2022-08-19T10:51:55;21.00;75.06
64961;SHT31;51487;52.266;10.542;2022-08-19T10:54:40;21.14;74.90
64961;SHT31;51487;52.266;10.542;2022-08-19T10:57:24;21.59;73.79
64961;SHT31;51487;52.266;10.542;2022-08-19T10:59:55;21.53;73.19
64961;SHT31;51487;52.266;10.542;2022-08-19T11:02:21;21.29;73.89
64961;SHT31;51487;52.266;10.542;2022-08-19T11:04:47;21.32;74.32
64961;SHT31;51487;52.266;10.542;2022-08-19T11:07:14;21.56;73.91
64961;SHT31;51487;52.266;10.542;2022-08-19T11:09:42;21.78;73.55
64961;SHT31;51487;52.266;10.542;2022-08-19T11:12:09;21.94;72.57
64961;SHT31;51487;52.266;10.542;2022-08-19T11:14:36;21.86;72.92
64961;SHT31;51487;52.266;10.542;2022-08-19T11:17:04;21.78;73.31
64961;SHT31;51487;52.266;10.542;2022-08-19T11:19:30;21.42;73.57
64961;SHT31;51487;52.266;10.542;2022-08-19T11:21:56;21.80;73.68
64961;SHT31;51487;52.266;10.542;2022-08-19T11:24:25;21.85;73.01
64961;SHT31;51487;52.266;10.542;2022-08-19T11:26:54;21.87;73.24
64961;SHT31;51487;52.266;10.542;2022-08-19T11:29:25;21.89;73.01
64961;SHT31;51487;52.266;10.542;2022-08-19T11:31:51;21.72;73.56
64961;SHT31;51487;52.266;10.542;2022-08-19T11:34:21;21.70;73.67
64961;SHT31;51487;52.266;10.542;2022-08-19T11:36:50;21.70;73.22
64961;SHT31;51487;52.266;10.542;2022-08-19T11:39:20;21.75;73.37
64961;SHT31;51487;52.266;10.542;2022-08-19T11:41:46;21.97;72.84
64961;SHT31;51487;52.266;10.542;2022-08-19T11:44:12;22.16;72.40
64961;SHT31;51487;52.266;10.542;2022-08-19T11:46:40;22.00;72.77
64961;SHT31;51487;52.266;10.542;2022-08-19T11:49:06;22.30;72.57
64961;SHT31;51487;52.266;10.542;2022-08-19T11:51:33;22.20;72.32
64961;SHT31;51487;52.266;10.542;2022-08-19T11:53:59;22.30;71.83
64961;SHT31;51487;52.266;10.542;2022-08-19T11:56:27;22.33;71.70
64961;SHT31;51487;52.266;10.542;2022-08-19T11:58:54;22.04;72.54
64961;SHT31;51487;52.266;10.542;2022-08-19T12:01:22;22.17;72.92
64961;SHT31;51487;52.266;10.542;2022-08-19T12:03:51;22.13;72.68
64961;SHT31;51487;52.266;10.542;2022-08-19T12:06:22;21.92;73.15
64961;SHT31;51487;52.266;10.542;2022-08-19T12:08:51;22.21;72.70
64961;SHT31;51487;52.266;10.542;2022-08-19T12:11:18;22.25;72.61
64961;SHT31;51487;52.266;10.542;2022-08-19T12:13:44;22.22;72.58
64961;SHT31;51487;52.266;10.542;2022-08-19T12:16:16;22.01;72.75
64961;SHT31;51487;52.266;10.542;2022-08-19T12:18:43;22.24;72.89
64961;SHT31;51487;52.266;10.542;2022-08-19T12:21:13;22.45;72.35
64961;SHT31;51487;52.266;10.542;2022-08-19T12:23:40;22.41;71.77
64961;SHT31;51487;52.266;10.542;2022-08-19T12:26:06;22.76;71.34
64961;SHT31;51487;52.266;10.542;2022-08-19T12:28:32;22.69;70.66
64961;SHT31;51487;52.266;10.542;2022-08-19T12:30:58;22.78;70.88
64961;SHT31;51487;52.266;10.542;2022-08-19T12:33:23;22.71;70.48
64961;SHT31;51487;52.266;10.542;2022-08-19T12:35:52;22.68;70.92
64961;SHT31;51487;52.266;10.542;2022-08-19T12:38:18;22.61;70.48
64961;SHT31;51487;52.266;10.542;2022-08-19T12:40:48;22.75;70.15
64961;SHT31;51487;52.266;10.542;2022-08-19T12:43:15;22.84;70.46
64961;SHT31;51487;52.266;10.542;2022-08-19T12:45:42;23.05;70.17
64961;SHT31;51487;52.266;10.542;2022-08-19T12:48:10;23.06;70.36
64961;SHT31;51487;52.266;10.542;2022-08-19T12:50:40;22.91;70.03
64961;SHT31;51487;52.266;10.542;2022-08-19T12:53:06;23.02;70.48
64961;SHT31;51487;52.266;10.542;2022-08-19T12:55:31;22.96;70.21
64961;SHT31;51487;52.266;10.542;2022-08-19T12:57:57;23.02;70.07
64961;SHT31;51487;52.266;10.542;2022-08-19T13:00:23;23.28;69.96
64961;SHT31;51487;52.266;10.542;2022-08-19T13:02:51;23.07;70.02
64961;SHT31;51487;52.266;10.542;2022-08-19T13:05:23;23.17;69.85
64961;SHT31;51487;52.266;10.542;2022-08-19T13:07:52;23.15;70.10
64961;SHT31;51487;52.266;10.542;2022-08-19T13:10:21;23.09;70.13
64961;SHT31;51487;52.266;10.542;2022-08-19T13:12:50;22.95;70.85
64961;SHT31;51487;52.266;10.542;2022-08-19T13:15:18;22.91;70.77
64961;SHT31;51487;52.266;10.542;2022-08-19T13:17:50;22.89;70.17
64961;SHT31;51487;52.266;10.542;2022-08-19T13:20:18;23.12;70.14
64961;SHT31;51487;52.266;10.542;2022-08-19T13:22:46;23.24;69.42
64961;SHT31;51487;52.266;10.542;2022-08-19T13:25:12;23.16;69.67
64961;SHT31;51487;52.266;10.542;2022-08-19T13:27:39;23.26;69.37
64961;SHT31;51487;52.266;10.542;2022-08-19T13:30:09;23.26;69.22
64961;SHT31;51487;52.266;10.542;2022-08-19T13:32:54;23.31;69.02
64961;SHT31;51487;52.266;10.542;2022-08-19T13:35:50;23.27;68.48
64961;SHT31;51487;52.266;10.542;2022-08-19T13:38:23;23.60;68.11
64961;SHT31;51487;52.266;10.542;2022-08-19T13:40:51;23.68;68.33
64961;SHT31;51487;52.266;10.542;2022-08-19T13:43:19;24.01;67.90
64961;SHT31;51487;52.266;10.542;2022-08-19T13:45:48;23.98;66.98
64961;SHT31;51487;52.266;10.542;2022-08-19T13:48:13;24.15;66.73
64961;SHT31;51487;52.266;10.542;2022-08-19T13:50:44;24.22;66.46
64961;SHT31;51487;52.266;10.542;2022-08-19T13:53:12;24.25;66.60
64961;SHT31;51487;52.266;10.542;2022-08-19T13:55:39;23.65;67.61
64961;SHT31;51487;52.266;10.542;2022-08-19T13:58:05;23.78;67.32
64961;SHT31;51487;52.266;10.542;2022-08-19T14:00:36;23.64;67.63
64961;SHT31;51487;52.266;10.542;2022-08-19T14:03:03;23.71;67.70
64961;SHT31;51487;52.266;10.542;2022-08-19T14:05:30;23.82;67.59
64961;SHT31;51487;52.266;10.542;2022-08-19T14:07:57;23.75;67.71
64961;SHT31;51487;52.266;10.542;2022-08-19T14:10:24;23.75;67.94
64961;SHT31;51487;52.266;10.542;2022-08-19T14:12:54;23.86;67.50
64961;SHT31;51487;52.266;10.542;2022-08-19T14:15:21;23.74;67.63
64961;SHT31;51487;52.266;10.542;2022-08-19T14:17:52;23.78;67.67
64961;SHT31;51487;52.266;10.542;2022-08-19T14:20:19;24.08;67.31
64961;SHT31;51487;52.266;10.542;2022-08-19T14:22:48;24.25;66.30
64961;SHT31;51487;52.266;10.542;2022-08-19T14:25:18;24.28;66.33
64961;SHT31;51487;52.266;10.542;2022-08-19T14:27:44;24.48;65.93
64961;SHT31;51487;52.266;10.542;2022-08-19T14:30:14;24.16;65.89
64961;SHT31;51487;52.266;10.542;2022-08-19T14:32:39;24.50;65.34
64961;SHT31;51487;52.266;10.542;2022-08-19T14:35:06;24.48;64.16
64961;SHT31;51487;52.266;10.542;2022-08-19T14:37:34;24.74;65.32
64961;SHT31;51487;52.266;10.542;2022-08-19T14:40:01;24.44;65.94
64961;SHT31;51487;52.266;10.542;2022-08-19T14:42:27;24.66;64.67
64961;SHT31;51487;52.266;10.542;2022-08-19T14:44:57;24.49;65.38
64961;SHT31;51487;52.266;10.542;2022-08-19T14:47:23;24.39;65.82
64961;SHT31;51487;52.266;10.542;2022-08-19T14:49:48;24.48;65.60
64961;SHT31;51487;52.266;10.542;2022-08-19T14:52:14;24.53;65.32
64961;SHT31;51487;52.266;10.542;2022-08-19T14:54:39;24.69;65.05
64961;SHT31;51487;52.266;10.542;2022-08-19T14:57:05;24.72;64.91
64961;SHT31;51487;52.266;10.542;2022-08-19T14:59:31;24.56;64.85
64961;SHT31;51487;52.266;10.542;2022-08-19T15:01:56;24.64;65.33
64961;SHT31;51487;52.266;10.542;2022-08-19T15:04:22;24.53;64.62
64961;SHT31;51487;52.266;10.542;2022-08-19T15:06:47;24.35;65.01
64961;SHT31;51487;52.266;10.542;2022-08-19T15:09:13;24.63;64.10
64961;SHT31;51487;52.266;10.542;2022-08-19T15:11:39;24.80;63.48
64961;SHT31;51487;52.266;10.542;2022-08-19T15:14:05;24.97;62.88
64961;SHT31;51487;52.266;10.542;2022-08-19T15:16:32;24.94;62.89
64961;SHT31;51487;52.266;10.542;2022-08-19T15:18:59;24.77;63.16
64961;SHT31;51487;52.266;10.542;2022-08-19T15:21:26;25.08;62.41
64961;SHT31;51487;52.266;10.542;2022-08-19T15:23:53;25.15;62.24
64961;SHT31;51487;52.266;10.542;2022-08-19T15:26:19;25.03;62.38
64961;SHT31;51487;52.266;10.542;2022-08-19T15:28:46;25.15;62.01
64961;SHT31;51487;52.266;10.542;2022-08-19T15:31:13;25.12;62.43